.
WxDataArchive / Data Records for 2009-10-25
2009-10-24 October 2009 2009-10-26

Data Records for Sunday, 25 October 2009

Time	Temp	Chill	HIndex	Humid	Dewpt	 Wind 	HiWind	WindDir	Rain 	Barom 
-----	----	-----	------	-----	-----	------	------	-------	-----	----- 
00:00	36.3	36.3	36.3	94	34.7	0	0	---	0.00	29.951 
00:05	36.3	36.3	36.3	94	34.7	0	0	---	0.00	29.951 
00:10	36.2	36.2	36.2	94	34.6	0	0	---	0.00	29.951 
00:15	36.2	36.2	36.2	94	34.6	0	0	---	0.00	29.957 
00:20	35.9	35.9	35.9	94	34.3	0	0	---	0.00	29.957 
00:25	35.8	35.8	35.8	94	34.2	0	0	---	0.00	29.957 
00:30	35.8	35.8	35.8	94	34.2	0	0	---	0.00	29.957 
00:35	35.6	35.6	35.6	94	34.0	0	0	---	0.00	29.957 
00:40	35.9	35.9	35.9	94	34.3	0	0	---	0.00	29.957 
00:45	36.0	36.0	36.0	94	34.4	0	0	---	0.00	29.956 
00:50	36.0	36.0	36.0	94	34.4	0	0	---	0.00	29.956 
00:55	36.0	36.0	36.0	94	34.4	0	0	---	0.00	29.956 
01:00	35.9	35.9	35.9	94	34.3	0	0	---	0.00	29.961 
01:05	35.9	35.9	35.9	94	34.3	0	0	---	0.00	29.961 
01:10	35.9	35.9	35.9	94	34.3	0	0	---	0.00	29.961 
01:15	35.8	35.8	35.8	94	34.2	0	0	---	0.00	29.962 
01:20	35.6	35.6	35.6	94	34.0	0	0	---	0.00	29.962 
01:25	35.5	35.5	35.5	94	33.9	0	0	---	0.00	29.962 
01:30	35.2	35.2	35.2	94	33.6	0	0	---	0.00	29.963 
01:35	35.0	35.0	35.0	94	33.5	0	0	---	0.00	29.963 
01:40	34.9	34.9	34.9	94	33.4	0	0	---	0.00	29.963 
01:45	34.7	34.7	34.7	94	33.2	0	0	---	0.00	29.967 
01:50	34.6	34.6	34.6	94	33.1	0	0	---	0.00	29.967 
01:55	34.4	34.4	34.4	94	32.9	0	0	---	0.00	29.967 
02:00	34.3	34.3	34.3	94	32.8	0	0	---	0.00	29.975 
02:05	34.1	34.1	34.1	94	32.6	0	0	---	0.00	29.975 
02:10	34.0	34.0	34.0	94	32.5	0	0	---	0.00	29.975 
02:15	34.0	34.0	34.0	94	32.5	0	0	---	0.00	29.983 
02:20	33.8	33.8	33.8	94	32.3	0	0	---	0.00	29.983 
02:25	33.7	33.7	33.7	94	32.2	0	0	---	0.00	29.983 
02:30	33.5	33.5	33.5	94	32.0	0	0	---	0.00	29.985 
02:35	33.5	33.5	33.5	94	32.0	0	0	---	0.00	29.985 
02:40	33.5	33.5	33.5	94	32.0	0	0	---	0.00	29.985 
02:45	33.5	33.5	33.5	94	32.0	0	0	---	0.00	29.983 
02:50	33.4	33.4	33.4	94	31.9	0	0	---	0.00	29.983 
02:55	33.4	33.4	33.4	95	32.1	0	0	---	0.00	29.983 
03:00	33.5	33.5	33.5	95	32.2	0	0	---	0.00	29.995 
03:05	33.7	33.7	33.7	95	32.4	0	0	---	0.00	29.995 
03:10	34.1	34.1	34.1	95	32.8	0	0	---	0.00	29.995 
03:15	34.4	34.4	34.4	95	33.1	0	0	---	0.00	30.007 
03:20	34.9	34.9	34.9	95	33.6	0	0	---	0.00	30.007 
03:25	35.0	35.0	35.0	95	33.7	0	0	---	0.00	30.007 
03:30	35.0	35.0	35.0	95	33.7	0	0	---	0.00	30.010 
03:35	35.0	35.0	35.0	95	33.7	0	0	---	0.00	30.010 
03:40	35.0	35.0	35.0	95	33.7	0	0	---	0.00	30.010 
03:45	35.0	35.0	35.0	95	33.7	0	0	---	0.00	30.014 
03:50	35.0	35.0	35.0	95	33.7	0	0	---	0.00	30.014 
03:55	34.9	34.9	34.9	95	33.6	0	0	---	0.00	30.014 
04:00	34.7	34.7	34.7	95	33.4	0	0	---	0.00	30.014 
04:05	34.6	34.6	34.6	95	33.3	0	0	---	0.00	30.014 
04:10	34.6	34.6	34.6	95	33.3	0	0	---	0.00	30.014 
04:15	34.9	34.9	34.9	95	33.6	0	0	---	0.00	30.022 
04:20	35.0	35.0	35.0	95	33.7	0	0	---	0.00	30.022 
04:25	35.3	35.3	35.3	96	34.3	0	0	---	0.00	30.022 
04:30	35.3	35.3	35.3	96	34.3	0	0	---	0.00	30.024 
04:35	35.2	35.2	35.2	95	33.9	0	0	---	0.00	30.024 
04:40	35.0	35.0	35.0	95	33.7	0	0	---	0.00	30.024 
04:45	34.9	34.9	34.9	95	33.6	0	0	---	0.00	30.021 
04:50	34.7	34.7	34.7	95	33.4	0	0	---	0.00	30.021 
04:55	34.6	34.6	34.6	95	33.3	0	0	---	0.00	30.021 
05:00	34.6	34.6	34.6	95	33.3	0	0	---	0.00	30.019 
05:05	34.4	34.4	34.4	95	33.1	0	0	---	0.00	30.019 
05:10	34.3	34.3	34.3	95	33.0	0	0	---	0.00	30.019 
05:15	34.3	34.3	34.3	95	33.0	0	0	---	0.00	30.025 
05:20	34.3	34.3	34.3	95	33.0	0	0	---	0.00	30.025 
05:25	34.3	34.3	34.3	95	33.0	0	0	---	0.00	30.025 
05:30	34.3	34.3	34.3	95	33.0	0	0	---	0.00	30.025 
05:35	34.4	34.4	34.4	96	33.4	0	0	---	0.00	30.025 
05:40	34.7	34.7	34.7	96	33.7	0	0	---	0.00	30.025 
05:45	34.9	34.9	34.9	96	33.9	0	0	---	0.00	30.026 
05:50	34.9	34.9	34.9	96	33.9	0	0	---	0.00	30.026 
05:55	35.0	35.0	35.0	96	34.0	0	0	---	0.00	30.026 
06:00	35.0	35.0	35.0	96	34.0	0	0	---	0.00	30.025 
06:05	35.0	35.0	35.0	96	34.0	0	0	---	0.00	30.025 
06:10	34.9	34.9	34.9	96	33.9	0	0	---	0.00	30.025 
06:15	34.9	34.9	34.9	96	33.9	0	0	---	0.00	30.035 
06:20	34.9	34.9	34.9	96	33.9	0	0	---	0.00	30.035 
06:25	35.0	35.0	35.0	96	34.0	0	0	---	0.00	30.035 
06:30	35.0	35.0	35.0	96	34.0	0	0	---	0.00	30.036 
06:35	35.0	35.0	35.0	96	34.0	0	0	---	0.00	30.036 
06:40	35.0	35.0	35.0	96	34.0	0	0	---	0.00	30.036 
06:45	35.2	35.2	35.2	96	34.2	0	0	---	0.00	30.041 
06:50	35.2	35.2	35.2	96	34.2	0	0	---	0.00	30.041 
06:55	35.2	35.2	35.2	96	34.2	0	0	---	0.00	30.041 
07:00	35.0	35.0	35.0	96	34.0	0	0	---	0.00	30.045 
07:05	35.2	35.2	35.2	96	34.2	0	0	---	0.00	30.045 
07:10	35.3	35.3	35.3	96	34.3	0	0	---	0.00	30.045 
07:15	35.5	35.5	35.5	96	34.5	0	0	---	0.00	30.047 
07:20	35.6	35.6	35.6	96	34.6	0	0	---	0.00	30.047 
07:25	35.8	35.8	35.8	96	34.8	0	0	---	0.00	30.047 
07:30	35.9	35.9	35.9	96	34.9	0	0	---	0.00	30.053 
07:35	36.2	36.2	36.2	96	35.2	0	0	---	0.00	30.053 
07:40	36.3	36.3	36.3	96	35.3	0	0	---	0.00	30.053 
07:45	36.5	36.5	36.5	96	35.5	0	0	---	0.00	30.045 
07:50	36.6	36.6	36.6	96	35.6	0	0	---	0.00	30.045 
07:55	36.9	36.9	36.9	96	35.9	0	0	---	0.00	30.045 
08:00	37.0	37.0	37.0	96	36.0	0	0	---	0.00	30.051 
08:05	37.2	37.2	37.2	96	36.2	0	0	---	0.00	30.051 
08:10	37.3	37.3	37.3	96	36.3	0	0	---	0.00	30.051 
08:15	37.5	37.5	37.5	96	36.5	0	0	---	0.00	30.059 
08:20	37.6	37.6	37.6	96	36.6	0	0	---	0.00	30.059 
08:25	37.8	37.8	37.8	96	36.8	0	0	---	0.00	30.059 
08:30	37.9	37.9	37.9	96	36.9	0	0	---	0.00	30.071 
08:35	37.9	37.9	37.9	96	36.9	0	0	---	0.00	30.071 
08:40	38.0	38.0	38.0	96	37.0	0	0	---	0.00	30.071 
08:45	38.2	38.2	38.2	96	37.2	0	0	---	0.00	30.071 
08:50	38.3	38.3	38.3	96	37.3	0	0	---	0.00	30.071 
08:55	38.3	38.3	38.3	96	37.3	0	0	---	0.00	30.071 
09:00	38.5	38.5	38.5	96	37.5	0	0	---	0.00	30.077 
09:05	38.8	38.8	38.8	96	37.8	0	0	---	0.00	30.077 
09:10	38.9	38.9	38.9	96	37.9	0	0	---	0.00	30.077 
09:15	39.2	39.2	39.2	96	38.2	0	0	---	0.00	30.086 
09:20	39.5	39.5	39.5	96	38.5	0	0	---	0.00	30.086 
09:25	39.8	39.8	39.8	96	38.8	0	0	---	0.00	30.086 
09:30	40.1	40.1	40.1	96	39.1	0	0	---	0.00	30.090 
09:35	40.3	40.3	40.3	96	39.3	0	0	---	0.00	30.090 
09:40	40.6	40.6	40.6	96	39.5	0	0	---	0.00	30.090 
09:45	40.8	40.8	40.8	96	39.7	0	0	---	0.00	30.091 
09:50	41.2	41.2	41.2	96	40.1	0	1	270	0.00	30.091 
09:55	41.8	41.8	41.8	95	40.5	0	0	---	0.00	30.091 
10:00	42.3	42.3	42.3	95	41.0	0	2	0	0.00	30.103 
10:05	42.6	42.6	42.6	94	41.0	0	2	0	0.00	30.103 
10:10	43.1	43.1	43.1	93	41.2	0	1	0	0.00	30.103 
10:15	43.5	43.5	43.5	91	41.0	0	3	45	0.00	30.104 
10:20	43.8	43.8	43.8	88	40.5	1	3	338	0.00	30.104 
10:25	44.2	44.2	44.2	87	40.6	0	2	22	0.00	30.104 
10:30	44.8	44.8	44.8	86	40.9	0	1	22	0.00	30.104 
10:35	45.2	45.2	45.2	84	40.7	0	1	22	0.00	30.104 
10:40	46.1	46.1	46.1	84	41.5	0	1	22	0.00	30.104 
10:45	47.0	47.0	47.0	82	41.8	0	2	22	0.00	30.106 
10:50	48.0	48.0	48.0	79	41.8	0	1	22	0.00	30.106 
10:55	48.8	48.8	48.8	76	41.6	0	1	22	0.00	30.106 
11:00	49.5	49.5	49.5	73	41.2	1	2	45	0.00	30.106 
11:05	49.9	49.9	49.9	72	41.2	0	2	202	0.00	30.106 
11:10	50.4	50.4	50.4	71	41.4	0	1	202	0.00	30.106 
11:15	51.3	51.3	51.3	70	41.9	0	3	112	0.00	30.110 
11:20	51.9	51.9	51.9	68	41.7	0	3	90	0.00	30.110 
11:25	52.3	52.3	52.3	68	42.1	1	2	135	0.00	30.110 
11:30	52.6	52.6	52.6	69	42.7	0	2	135	0.00	30.109 
11:35	52.5	52.5	52.5	66	41.5	1	3	112	0.00	30.109 
11:40	52.3	52.3	52.3	68	42.1	1	2	315	0.00	30.109 
11:45	52.5	52.5	52.5	68	42.2	1	6	270	0.00	30.111 
11:50	52.9	52.9	52.9	69	43.0	1	6	270	0.00	30.111 
11:55	53.2	53.2	53.2	66	42.1	0	3	270	0.00	30.111 
12:00	53.2	53.2	53.2	66	42.1	1	3	45	0.00	30.108 
12:05	53.3	53.3	53.3	68	43.0	0	3	248	0.00	30.108 
12:10	53.3	53.3	53.3	68	43.0	1	3	292	0.00	30.108 
12:15	54.1	54.1	54.1	66	43.0	1	3	248	0.00	30.109 
12:20	54.2	54.2	54.2	66	43.1	1	3	270	0.00	30.109 
12:25	54.4	54.4	54.4	65	42.9	1	4	112	0.00	30.109 
12:30	54.4	54.4	54.4	66	43.3	1	3	112	0.00	30.107 
12:35	54.5	54.5	54.5	65	43.0	1	4	45	0.00	30.107 
12:40	54.5	54.5	54.5	66	43.4	0	3	225	0.00	30.107 
12:45	54.7	54.7	54.7	66	43.6	0	2	202	0.00	30.115 
12:50	54.7	54.7	54.7	65	43.2	1	3	315	0.00	30.115 
12:55	54.7	54.7	54.7	64	42.8	1	5	270	0.00	30.115 
13:00	54.7	54.7	54.7	68	44.3	1	3	315	0.00	30.114 
13:05	54.5	54.5	54.5	65	43.0	1	4	270	0.00	30.114 
13:10	54.5	54.5	54.5	64	42.6	0	3	225	0.00	30.114 
13:15	54.5	54.5	54.5	64	42.6	0	2	0	0.00	30.116 
13:20	54.7	54.7	54.7	65	43.2	0	3	338	0.00	30.116 
13:25	54.7	54.7	54.7	63	42.4	1	4	248	0.00	30.116 
13:30	54.8	54.8	54.8	64	42.9	1	3	338	0.00	30.107 
13:35	55.0	55.0	55.0	63	42.6	1	4	270	0.00	30.107 
13:40	55.1	55.1	55.1	62	42.3	1	4	270	0.00	30.107 
13:45	55.7	55.7	55.7	62	42.9	1	3	248	0.00	30.098 
13:50	56.2	56.2	56.2	61	42.9	1	4	90	0.00	30.098 
13:55	56.6	56.6	56.6	61	43.3	1	3	90	0.00	30.098 
14:00	57.0	57.0	57.0	61	43.7	1	4	225	0.00	30.094 
14:05	57.6	57.6	57.6	61	44.2	1	3	248	0.00	30.094 
14:10	58.1	58.1	58.1	58	43.4	1	4	248	0.00	30.094 
14:15	58.4	58.4	58.4	58	43.7	1	3	270	0.00	30.092 
14:20	58.6	58.6	58.6	58	43.9	1	3	90	0.00	30.092 
14:25	58.9	58.9	58.9	55	42.8	2	5	248	0.00	30.092 
14:30	59.0	59.0	59.0	55	42.9	2	7	270	0.00	30.090 
14:35	59.2	59.2	59.2	54	42.6	2	6	248	0.00	30.090 
14:40	59.5	59.5	59.5	55	43.3	2	6	270	0.00	30.090 
14:45	59.9	59.9	59.9	55	43.7	2	5	270	0.00	30.088 
14:50	60.1	60.1	60.1	53	42.9	2	5	270	0.00	30.088 
14:55	59.9	59.9	59.9	52	42.2	1	5	90	0.00	30.088 
15:00	60.2	60.2	60.2	51	42.0	2	5	292	0.00	30.088 
15:05	60.5	60.5	60.5	54	43.8	1	5	112	0.00	30.088 
15:10	61.0	61.0	61.0	51	42.7	2	5	270	0.00	30.088 
15:15	61.2	61.2	61.2	51	42.9	1	4	270	0.00	30.078 
15:20	61.0	61.0	61.0	53	43.7	1	5	315	0.00	30.078 
15:25	60.9	60.9	60.9	53	43.7	0	3	315	0.00	30.078 
15:30	60.4	60.4	60.4	49	41.1	2	7	248	0.00	30.080 
15:35	60.1	60.1	60.1	50	41.4	1	3	248	0.00	30.080 
15:40	59.9	59.9	59.9	49	40.7	1	5	45	0.00	30.080 
15:45	59.9	59.9	59.9	52	42.2	0	2	248	0.00	30.076 
15:50	60.1	60.1	60.1	54	43.4	0	2	90	0.00	30.076 
15:55	60.1	60.1	60.1	52	42.4	0	4	135	0.00	30.076 
16:00	60.2	60.2	60.2	52	42.5	1	3	90	0.00	30.074 
16:05	60.4	60.4	60.4	49	41.1	1	4	112	0.00	30.074 
16:10	60.7	60.7	60.7	52	43.0	1	2	112	0.00	30.074 
16:15	60.7	60.7	60.7	49	41.4	1	5	248	0.00	30.072 
16:20	60.5	60.5	60.5	47	40.2	1	3	315	0.00	30.072 
16:25	60.4	60.4	60.4	47	40.1	1	2	292	0.00	30.072 
16:30	60.4	60.4	60.4	46	39.5	1	4	112	0.00	30.074 
16:35	60.5	60.5	60.5	46	39.6	1	6	112	0.00	30.074 
16:40	60.5	60.5	60.5	46	39.6	1	3	68	0.00	30.074 
16:45	60.9	60.9	60.9	47	40.5	0	5	248	0.00	30.072 
16:50	60.9	60.9	60.9	47	40.5	0	2	112	0.00	30.072 
16:55	60.9	60.9	60.9	47	40.5	1	4	112	0.00	30.072 
17:00	60.7	60.7	60.7	46	39.8	1	5	22	0.00	30.072 
17:05	60.7	60.7	60.7	46	39.8	0	4	90	0.00	30.072 
17:10	60.5	60.5	60.5	47	40.2	0	2	68	0.00	30.072 
17:15	60.5	60.5	60.5	47	40.2	0	2	90	0.00	30.072 
17:20	60.7	60.7	60.7	46	39.8	1	3	90	0.00	30.072 
17:25	60.7	60.7	60.7	46	39.8	1	3	68	0.00	30.072 
17:30	60.9	60.9	60.9	45	39.4	1	4	90	0.00	30.069 
17:35	60.9	60.9	60.9	46	40.0	1	4	90	0.00	30.069 
17:40	60.9	60.9	60.9	46	40.0	1	5	68	0.00	30.069 
17:45	60.9	60.9	60.9	44	38.8	2	11	112	0.00	30.065 
17:50	60.7	60.7	60.7	45	39.2	1	3	112	0.00	30.065 
17:55	60.4	60.4	60.4	46	39.5	1	3	90	0.00	30.065 
18:00	60.2	60.2	60.2	46	39.3	1	3	68	0.00	30.066 
18:05	59.9	59.9	59.9	46	39.1	0	2	112	0.00	30.066 
18:10	59.8	59.8	59.8	47	39.5	0	2	135	0.00	30.066 
18:15	59.5	59.5	59.5	47	39.3	1	3	112	0.00	30.071 
18:20	59.2	59.2	59.2	48	39.5	0	2	112	0.00	30.071 
18:25	58.9	58.9	58.9	48	39.2	0	2	112	0.00	30.071 
18:30	58.6	58.6	58.6	49	39.5	0	1	112	0.00	30.077 
18:35	58.3	58.3	58.3	50	39.7	0	0	---	0.00	30.077 
18:40	58.0	58.0	58.0	50	39.5	0	1	112	0.00	30.077 
18:45	57.6	57.6	57.6	50	39.1	0	0	---	0.00	30.090 
18:50	57.3	57.3	57.3	50	38.8	0	0	---	0.00	30.090 
18:55	57.0	57.0	57.0	50	38.5	0	0	---	0.00	30.090 
19:00	56.7	56.7	56.7	51	38.8	0	0	---	0.00	30.092 
19:05	56.5	56.5	56.5	51	38.6	0	0	---	0.00	30.092 
19:10	56.2	56.2	56.2	52	38.8	0	1	112	0.00	30.092 
19:15	55.9	55.9	55.9	53	39.0	0	0	---	0.00	30.092 
19:20	55.4	55.4	55.4	55	39.5	0	0	---	0.00	30.092 
19:25	55.0	55.0	55.0	56	39.6	0	0	---	0.00	30.092 
19:30	54.5	54.5	54.5	58	40.0	0	0	---	0.00	30.098 
19:35	53.9	53.9	53.9	60	40.3	0	0	---	0.00	30.098 
19:40	53.3	53.3	53.3	61	40.2	0	0	---	0.00	30.098 
19:45	52.9	52.9	52.9	62	40.2	0	0	---	0.00	30.102 
19:50	52.5	52.5	52.5	61	39.4	0	0	---	0.00	30.102 
19:55	52.2	52.2	52.2	62	39.6	0	0	---	0.00	30.102 
20:00	51.9	51.9	51.9	63	39.7	0	0	---	0.00	30.110 
20:05	51.4	51.4	51.4	63	39.2	0	0	---	0.00	30.110 
20:10	51.0	51.0	51.0	64	39.3	0	0	---	0.00	30.110 
20:15	50.5	50.5	50.5	66	39.6	0	0	---	0.00	30.110 
20:20	50.1	50.1	50.1	67	39.6	0	0	---	0.00	30.110 
20:25	49.6	49.6	49.6	68	39.5	0	0	---	0.00	30.110 
20:30	49.2	49.2	49.2	69	39.5	0	0	---	0.00	30.112 
20:35	48.8	48.8	48.8	69	39.1	0	0	---	0.00	30.112 
20:40	48.5	48.5	48.5	71	39.5	0	0	---	0.00	30.112 
20:45	48.0	48.0	48.0	72	39.4	0	0	---	0.00	30.123 
20:50	47.7	47.7	47.7	73	39.5	0	0	---	0.00	30.123 
20:55	47.4	47.4	47.4	73	39.2	0	0	---	0.00	30.123 
21:00	47.1	47.1	47.1	74	39.2	0	0	---	0.00	30.128 
21:05	47.0	47.0	47.0	75	39.5	0	0	---	0.00	30.128 
21:10	46.7	46.7	46.7	77	39.9	0	0	---	0.00	30.128 
21:15	46.4	46.4	46.4	77	39.6	0	0	---	0.00	30.126 
21:20	46.2	46.2	46.2	78	39.7	0	0	---	0.00	30.126 
21:25	46.1	46.1	46.1	77	39.3	0	0	---	0.00	30.126 
21:30	46.1	46.1	46.1	77	39.3	0	0	---	0.00	30.122 
21:35	46.1	46.1	46.1	76	39.0	0	0	---	0.00	30.122 
21:40	46.2	46.2	46.2	76	39.1	0	0	---	0.00	30.122 
21:45	46.2	46.2	46.2	76	39.1	0	0	---	0.00	30.128 
21:50	46.2	46.2	46.2	75	38.7	0	0	---	0.00	30.128 
21:55	46.4	46.4	46.4	74	38.6	0	0	---	0.00	30.128 
22:00	46.4	46.4	46.4	74	38.6	0	0	---	0.00	30.129 
22:05	46.4	46.4	46.4	75	38.9	0	0	---	0.00	30.129 
22:10	46.2	46.2	46.2	75	38.7	0	0	---	0.00	30.129 
22:15	46.1	46.1	46.1	76	39.0	0	0	---	0.00	30.132 
22:20	46.1	46.1	46.1	76	39.0	0	0	---	0.00	30.132 
22:25	46.1	46.1	46.1	76	39.0	0	0	---	0.00	30.132 
22:30	46.0	46.0	46.0	76	38.9	0	0	---	0.00	30.136 
22:35	45.8	45.8	45.8	76	38.7	0	0	---	0.00	30.136 
22:40	45.7	45.7	45.7	76	38.6	0	0	---	0.00	30.136 
22:45	45.5	45.5	45.5	77	38.7	0	0	---	0.00	30.137 
22:50	45.2	45.2	45.2	77	38.4	0	0	---	0.00	30.137 
22:55	45.1	45.1	45.1	77	38.3	0	0	---	0.00	30.137 
23:00	44.9	44.9	44.9	78	38.5	0	0	---	0.00	30.143 
23:05	44.6	44.6	44.6	78	38.2	0	0	---	0.00	30.143 
23:10	44.6	44.6	44.6	78	38.2	0	0	---	0.00	30.143 
23:15	44.5	44.5	44.5	78	38.1	0	0	---	0.00	30.143 
23:20	44.3	44.3	44.3	79	38.2	0	0	---	0.00	30.143 
23:25	44.1	44.1	44.1	79	38.0	0	0	---	0.00	30.143 
23:30	44.1	44.1	44.1	79	38.0	0	0	---	0.00	30.146 
23:35	43.9	43.9	43.9	79	37.8	0	0	---	0.00	30.146 
23:40	43.6	43.6	43.6	79	37.5	0	0	---	0.00	30.146 
23:45	43.5	43.5	43.5	79	37.4	0	0	---	0.00	30.148 
23:50	43.3	43.3	43.3	80	37.6	0	0	---	0.00	30.148 
23:55	43.1	43.1	43.1	81	37.7	0	0	---	0.00	30.148 

CoCoRaHS
IN-AL-39
A2 Web Hosting
Creative Commons License
GoDaddy
search engine by freefind advanced

loaded 2018-11-15 17:42:25 • last modified 2010-11-18 10:43:29
Privacy PolicyDisclaimer
• wx.awcolley.com is powered by PmWiki v.2002016 •
• all content (unless otherwise noted) © 2018 A W Colley